Havelock, North Dakota
Current Conditions -  °F | °C
As of 7:56 PM on Sunday 23 Nov 2014 (Local Time) from KDIK Reporting Station
Few Clouds Few Clouds  
Wind Chill:   Ceiling: Unl
Heat Index: 20°   Visibility: 10mi
Dew Point: 13°   Wind: 21mph
Humidity: 74%   Direction: 320°NW
Pressure: 29.71"   Gusts: 30mph
Location:  46.4704°N, 102.78°W
Report Text: KDIK 240256Z AUTO 32018G26KT 10SM FEW018 M07/M11 A2971 RMK AO2 PK WND 33027/0210 SLP095 60000 T10671106 51005
Loading
Personal Weather Stations






























Interactive Weather Map New forecast layout! Learn more

10-Day Weather Forecast

Advertisements
Track Severe Weather on mobile